Time;durP1;ratioP1;P1;durP2;ratioP2;P2;SDS_P1;SDS_P2;PMS_P1;PMS_P2;Temp;Humidity;BMP_temperature;BMP_pressure;BME280_temperature;BME280_humidity;BME280_pressure;Samples;Min_cycle;Max_cycle;Signal;HPM_P1;HPM_P2
2021/10/28 00:13:18;;;;;;;242.07;164.90;;;;;;;;;;6183311;23;20024;-79
2021/10/28 00:15:53;;;;;;;199.27;132.73;;;;;;;;;;6181669;23;20005;-78
2021/10/28 00:18:28;;;;;;;149.02;101.22;;;;;;;;;;6182265;23;20033;-82
2021/10/28 00:20:56;;;;;;;91.40;64.43;;;;;;;;;;6182890;23;20061;-81
2021/10/28 00:23:23;;;;;;;79.20;55.50;;;;;;;;;;6182414;23;20012;-76
2021/10/28 00:25:49;;;;;;;76.22;50.58;;;;;;;;;;6180826;23;20098;-81
2021/10/28 00:28:17;;;;;;;68.80;47.15;;;;;;;;;;6180855;23;20074;-78
2021/10/28 00:30:43;;;;;;;65.82;46.78;;;;;;;;;;6182338;23;19986;-82
2021/10/28 00:33:11;;;;;;;64.80;47.03;;;;;;;;;;6182204;23;20070;-78
2021/10/28 00:35:38;;;;;;;66.05;46.80;;;;;;;;;;6181631;23;20006;-80
2021/10/28 00:38:04;;;;;;;68.00;47.03;;;;;;;;;;6181667;23;19982;-82
2021/10/28 00:40:32;;;;;;;64.53;43.38;;;;;;;;;;6182537;23;20005;-79
2021/10/28 00:42:58;;;;;;;58.53;43.25;;;;;;;;;;6181903;23;20016;-79
2021/10/28 00:45:25;;;;;;;62.35;44.35;;;;;;;;;;6182349;23;19982;-77
2021/10/28 00:47:53;;;;;;;73.03;48.15;;;;;;;;;;6180898;23;20033;-77
2021/10/28 00:50:21;;;;;;;68.32;47.33;;;;;;;;;;6182041;23;20002;-82
2021/10/28 00:52:47;;;;;;;67.43;48.20;;;;;;;;;;6183055;23;20053;-81
2021/10/28 00:55:14;;;;;;;62.15;45.78;;;;;;;;;;6182284;23;20009;-80
2021/10/28 00:57:40;;;;;;;67.07;47.17;;;;;;;;;;6182495;23;20002;-82
2021/10/28 01:00:22;;;;;;;72.90;48.53;;;;;;;;;;6181647;23;20005;-82
2021/10/28 01:02:49;;;;;;;84.90;58.35;;;;;;;;;;6180958;23;20001;-82
2021/10/28 01:05:15;;;;;;;71.93;50.45;;;;;;;;;;6182197;23;19990;-82
2021/10/28 01:07:43;;;;;;;74.97;52.40;;;;;;;;;;6181719;23;20002;-78
2021/10/28 01:10:09;;;;;;;71.40;50.55;;;;;;;;;;6181679;23;20065;-83
2021/10/28 01:12:35;;;;;;;66.22;47.90;;;;;;;;;;6182616;23;20006;-77
2021/10/28 01:15:02;;;;;;;76.38;52.60;;;;;;;;;;6182851;23;20012;-82
2021/10/28 01:17:31;;;;;;;65.97;49.65;;;;;;;;;;6183646;23;19996;-81
2021/10/28 01:19:58;;;;;;;66.32;47.92;;;;;;;;;;6179830;23;20002;-75
2021/10/28 01:22:24;;;;;;;67.93;48.60;;;;;;;;;;6181485;23;20078;-81
2021/10/28 01:24:50;;;;;;;66.03;47.75;;;;;;;;;;6183371;23;20008;-82
2021/10/28 01:27:16;;;;;;;67.38;47.13;;;;;;;;;;6182701;23;20013;-83
2021/10/28 01:29:43;;;;;;;69.18;49.20;;;;;;;;;;6183651;23;20001;-82
2021/10/28 01:32:10;;;;;;;72.35;50.80;;;;;;;;;;6182869;23;20001;-82
2021/10/28 01:34:41;;;;;;;74.03;51.35;;;;;;;;;;6183404;23;20060;-81
2021/10/28 01:41:16;;;;;;;69.57;48.25;;;;;;;;;;6122429;23;20010;-82
2021/10/28 01:43:47;;;;;;;78.88;55.83;;;;;;;;;;6036888;23;20123;-82
2021/10/28 01:49:06;;;;;;;75.43;52.72;;;;;;;;;;6036695;23;20032;-83
2021/10/28 01:51:33;;;;;;;75.63;52.08;;;;;;;;;;6035203;23;20003;-77
2021/10/28 01:53:59;;;;;;;71.82;51.38;;;;;;;;;;6035595;23;20002;-78
2021/10/28 01:56:25;;;;;;;69.43;49.88;;;;;;;;;;6012581;23;20043;-82
2021/10/28 01:58:51;;;;;;;75.90;54.70;;;;;;;;;;6037027;23;20039;-83
2021/10/28 02:01:18;;;;;;;85.72;61.55;;;;;;;;;;6035992;23;20000;-80
2021/10/28 02:04:22;;;;;;;83.60;62.45;;;;;;;;;;6035864;23;19992;-79
2021/10/28 02:06:48;;;;;;;87.10;61.75;;;;;;;;;;5977029;24;19996;-79
2021/10/28 02:09:14;;;;;;;79.03;57.63;;;;;;;;;;5979886;24;20033;-82
2021/10/28 02:11:42;;;;;;;83.97;58.88;;;;;;;;;;5980326;24;20009;-80
2021/10/28 02:14:08;;;;;;;78.13;55.78;;;;;;;;;;5991080;24;20031;-79
2021/10/28 02:16:35;;;;;;;85.05;58.85;;;;;;;;;;6028184;23;20049;-75
2021/10/28 02:19:01;;;;;;;82.65;57.05;;;;;;;;;;6125066;23;20011;-81
2021/10/28 02:21:28;;;;;;;77.32;53.05;;;;;;;;;;6125231;23;19991;-73
2021/10/28 02:23:55;;;;;;;77.15;54.50;;;;;;;;;;6123925;23;20026;-81
2021/10/28 02:26:21;;;;;;;84.97;58.60;;;;;;;;;;6124594;23;20014;-80
2021/10/28 02:28:48;;;;;;;94.55;64.35;;;;;;;;;;6125276;23;20090;-75
2021/10/28 02:31:14;;;;;;;107.78;70.78;;;;;;;;;;6123611;23;20021;-79
2021/10/28 02:33:40;;;;;;;92.97;63.35;;;;;;;;;;6124181;23;20017;-73
2021/10/28 02:36:07;;;;;;;72.85;52.67;;;;;;;;;;6124715;23;20021;-79
2021/10/28 02:38:33;;;;;;;75.40;53.45;;;;;;;;;;6125740;23;20002;-80
2021/10/28 02:40:59;;;;;;;80.07;57.30;;;;;;;;;;6163612;23;19994;-83
2021/10/28 02:43:25;;;;;;;79.85;57.83;;;;;;;;;;6185741;23;19989;-81
2021/10/28 02:45:51;;;;;;;88.70;62.70;;;;;;;;;;6185045;23;20016;-81
2021/10/28 02:48:17;;;;;;;79.18;57.15;;;;;;;;;;6185271;23;20009;-82
2021/10/28 02:50:46;;;;;;;83.90;57.45;;;;;;;;;;6185376;23;20025;-81
2021/10/28 02:53:12;;;;;;;74.68;54.70;;;;;;;;;;6185356;23;19994;-81
2021/10/28 02:55:38;;;;;;;87.35;60.58;;;;;;;;;;6184813;23;19998;-81
2021/10/28 02:58:04;;;;;;;79.10;58.22;;;;;;;;;;6184109;23;20054;-78
2021/10/28 03:00:30;;;;;;;84.95;58.92;;;;;;;;;;6184094;23;20004;-78
2021/10/28 03:03:28;;;;;;;;;;;;;;;;;;;;;
2021/10/28 03:05:54;;;;;;;127.07;85.70;;;;;;;;;;6147477;23;20033;-77
2021/10/28 03:08:20;;;;;;;88.93;59.67;;;;;;;;;;6180461;23;20036;-80
2021/10/28 03:10:47;;;;;;;112.53;78.97;;;;;;;;;;6181664;23;19982;-78
2021/10/28 03:13:19;;;;;;;122.93;85.90;;;;;;;;;;6178119;23;20010;-80
2021/10/28 03:15:56;;;;;;;107.45;73.88;;;;;;;;;;6179454;23;20001;-78
2021/10/28 03:26:38;;;;;;;81.25;58.58;;;;;;;;;;6177940;23;20029;-78
2021/10/28 03:29:04;;;;;;;81.70;54.72;;;;;;;;;;6178048;23;19993;-79
2021/10/28 03:31:30;;;;;;;78.45;55.53;;;;;;;;;;6181858;23;20029;-81
2021/10/28 03:33:56;;;;;;;88.53;60.13;;;;;;;;;;6180923;23;20009;-78
2021/10/28 03:42:40;;;;;;;81.05;54.78;;;;;;;;;;6124990;23;20010;-81
2021/10/28 04:29:35;;;;;;;77.80;53.95;;;;;;;;;;5961289;24;20051;-73
2021/10/28 04:32:19;;;;;;;73.05;52.58;;;;;;;;;;5948330;24;20036;-69
2021/10/28 04:34:47;;;;;;;76.75;53.75;;;;;;;;;;5946345;24;20011;-69
2021/10/28 04:37:25;;;;;;;77.93;54.47;;;;;;;;;;5957850;24;20084;-76
2021/10/28 04:43:57;;;;;;;104.45;66.47;;;;;;;;;;5923882;24;20438;-74
2021/10/28 04:46:26;;;;;;;91.63;60.97;;;;;;;;;;5925972;23;20436;-71
2021/10/28 04:48:54;;;;;;;82.80;58.38;;;;;;;;;;5933063;24;20046;-72
2021/10/28 04:51:22;;;;;;;83.65;55.78;;;;;;;;;;5917043;24;20390;-77
2021/10/28 04:53:48;;;;;;;82.97;56.10;;;;;;;;;;5938303;24;20448;-76
2021/10/28 04:56:23;;;;;;;94.32;62.65;;;;;;;;;;5938732;24;20016;-75
2021/10/28 04:58:49;;;;;;;104.60;67.45;;;;;;;;;;5941763;24;20439;-75
2021/10/28 05:01:15;;;;;;;100.05;64.90;;;;;;;;;;5991512;24;20048;-76
2021/10/28 05:03:41;;;;;;;125.68;78.63;;;;;;;;;;5960991;24;20012;-75
2021/10/28 05:06:08;;;;;;;104.25;64.10;;;;;;;;;;5959085;24;20012;-75
2021/10/28 05:08:36;;;;;;;86.55;57.38;;;;;;;;;;5980315;24;20016;-74
2021/10/28 05:11:03;;;;;;;96.10;61.05;;;;;;;;;;6030684;23;20007;-74
2021/10/28 05:13:39;;;;;;;96.82;61.85;;;;;;;;;;6065297;23;20022;-70
2021/10/28 05:16:23;;;;;;;111.03;68.18;;;;;;;;;;6067360;23;20077;-68
2021/10/28 05:18:50;;;;;;;;;;;;;;;;;;6081991;23;20007;-72
2021/10/28 05:21:16;;;;;;;99.75;65.20;;;;;;;;;;6157396;23;19932;-75
2021/10/28 05:23:55;;;;;;;106.22;71.32;;;;;;;;;;6155214;23;20071;-70
2021/10/28 05:26:21;;;;;;;130.85;84.50;;;;;;;;;;6159922;23;20036;-72
2021/10/28 05:28:48;;;;;;;117.93;79.75;;;;;;;;;;6155211;23;20096;-70
2021/10/28 05:31:14;;;;;;;110.32;71.53;;;;;;;;;;6155379;23;20010;-68
2021/10/28 05:33:42;;;;;;;85.78;49.78;;;;;;;;;;6155158;23;20001;-72
2021/10/28 05:36:08;;;;;;;69.90;47.45;;;;;;;;;;6155666;23;20424;-73
2021/10/28 05:38:34;;;;;;;71.78;47.80;;;;;;;;;;6155270;23;20436;-73
2021/10/28 05:41:00;;;;;;;69.18;45.50;;;;;;;;;;6155700;23;20008;-71
2021/10/28 05:43:26;;;;;;;80.40;50.95;;;;;;;;;;6155463;23;19998;-71
2021/10/28 05:45:52;;;;;;;86.63;53.20;;;;;;;;;;6157514;23;20002;-70
2021/10/28 05:48:18;;;;;;;113.82;61.95;;;;;;;;;;6165554;23;20006;-70
2021/10/28 05:50:46;;;;;;;110.05;64.80;;;;;;;;;;6162019;23;20013;-69
2021/10/28 05:53:13;;;;;;;112.72;57.70;;;;;;;;;;6162989;23;20037;-72
2021/10/28 05:55:39;;;;;;;106.15;57.28;;;;;;;;;;6162672;23;20006;-72
2021/10/28 05:58:05;;;;;;;89.72;52.40;;;;;;;;;;6166051;23;20169;-75
2021/10/28 06:00:48;;;;;;;103.95;56.50;;;;;;;;;;6173135;23;19994;-80
2021/10/28 06:03:14;;;;;;;89.40;54.20;;;;;;;;;;6170358;23;19997;-77
2021/10/28 06:05:41;;;;;;;77.55;49.13;;;;;;;;;;6171127;23;20008;-77
2021/10/28 06:08:07;;;;;;;81.82;49.85;;;;;;;;;;6178222;23;20009;-78
2021/10/28 06:10:43;;;;;;;72.60;47.63;;;;;;;;;;6166149;23;20016;-70
2021/10/28 06:13:10;;;;;;;66.32;45.20;;;;;;;;;;6168613;23;20368;-72
2021/10/28 06:15:36;;;;;;;69.35;46.08;;;;;;;;;;6174031;23;20005;-69
2021/10/28 06:20:50;;;;;;;73.78;47.08;;;;;;;;;;6177305;23;20014;-75
2021/10/28 06:23:38;;;;;;;84.97;49.30;;;;;;;;;;6165176;23;20009;-79
2021/10/28 06:26:05;;;;;;;90.72;49.55;;;;;;;;;;6165048;23;20048;-76
2021/10/28 06:28:35;;;;;;;87.75;50.78;;;;;;;;;;6158009;23;20006;-76
2021/10/28 06:31:04;;;;;;;84.57;51.28;;;;;;;;;;6165718;23;20035;-75
2021/10/28 06:33:53;;;;;;;116.20;57.75;;;;;;;;;;6173561;23;20066;-77
2021/10/28 06:36:24;;;;;;;86.88;51.05;;;;;;;;;;6162324;23;20012;-78
2021/10/28 06:38:50;;;;;;;114.80;57.08;;;;;;;;;;6166558;23;20428;-78
2021/10/28 06:41:17;;;;;;;68.55;48.22;;;;;;;;;;6166904;23;20001;-77
2021/10/28 06:43:43;;;;;;;71.65;48.25;;;;;;;;;;6163977;23;20002;-74
2021/10/28 06:46:10;;;;;;;68.20;47.85;;;;;;;;;;6160023;23;20062;-75
2021/10/28 06:48:40;;;;;;;65.78;47.03;;;;;;;;;;6163381;23;20020;-75
2021/10/28 06:51:10;;;;;;;59.85;44.22;;;;;;;;;;6160542;23;20010;-78
2021/10/28 06:53:45;;;;;;;66.63;46.45;;;;;;;;;;6164708;23;20274;-77
2021/10/28 07:04:11;;;;;;;57.92;42.30;;;;;;;;;;6159403;23;20028;-73
2021/10/28 07:06:39;;;;;;;62.42;45.35;;;;;;;;;;6156750;23;20017;-75
2021/10/28 07:14:36;;;;;;;68.10;44.30;;;;;;;;;;6109424;23;19990;-80
2021/10/28 07:22:28;;;;;;;52.40;36.15;;;;;;;;;;6100511;23;20014;-80
2021/10/28 08:21:56;;;;;;;34.38;23.35;;;;;;;;;;6068870;23;20464;-75
2021/10/28 08:28:39;;;;;;;37.33;24.63;;;;;;;;;;6099046;23;20051;-77
2021/10/28 08:29:32;;;;;;;36.05;22.85;;;;;;;;;;6173962;23;20048;-71
2021/10/28 08:31:58;;;;;;;34.42;21.40;;;;;;;;;;6164727;23;20006;-74
2021/10/28 08:34:32;;;;;;;58.78;40.65;;;;;;;;;;6165431;23;20061;-74
2021/10/28 08:37:10;;;;;;;62.10;40.78;;;;;;;;;;6156623;23;20005;-78
2021/10/28 08:39:39;;;;;;;55.05;37.22;;;;;;;;;;6163726;23;20009;-66
2021/10/28 08:42:10;;;;;;;52.13;38.58;;;;;;;;;;6173733;23;20073;-66
2021/10/28 08:44:40;;;;;;;46.63;33.33;;;;;;;;;;6171726;23;20014;-66
2021/10/28 08:47:09;;;;;;;52.25;30.88;;;;;;;;;;6176355;23;20030;-66
2021/10/28 08:49:42;;;;;;;46.28;28.98;;;;;;;;;;6170192;23;20336;-66
2021/10/28 08:55:17;;;;;;;25.02;16.02;;;;;;;;;;6163579;23;20021;-78
2021/10/28 09:23:59;;;;;;;23.27;15.38;;;;;;;;;;6135615;23;20018;-75
2021/10/28 09:26:51;;;;;;;21.02;15.15;;;;;;;;;;6174902;23;20025;-79
2021/10/28 09:51:55;;;;;;;32.08;23.42;;;;;;;;;;6170623;23;20082;-73
2021/10/28 10:00:32;;;;;;;41.80;27.95;;;;;;;;;;6166594;23;20028;-77
2021/10/28 10:03:22;;;;;;;41.47;29.23;;;;;;;;;;6138456;23;20006;-77
2021/10/28 10:08:24;;;;;;;46.00;31.00;;;;;;;;;;6135013;23;20486;-73
2021/10/28 10:10:53;;;;;;;45.85;32.58;;;;;;;;;;6108415;23;20083;-72
2021/10/28 10:13:34;;;;;;;47.90;35.55;;;;;;;;;;6131838;23;20002;-76
2021/10/28 10:16:14;;;;;;;;;;;;;;;;;;;;;
2021/10/28 10:21:43;;;;;;;49.25;33.28;;;;;;;;;;6043049;23;20529;-73
2021/10/28 11:28:47;;;;;;;23.75;16.77;;;;;;;;;;6005800;23;20408;-73
2021/10/28 12:14:32;;;;;;;21.73;15.00;;;;;;;;;;6235672;23;20000;-80
2021/10/28 12:22:54;;;;;;;20.83;13.90;;;;;;;;;;6225778;23;20130;-74
2021/10/28 12:28:00;;;;;;;26.83;17.75;;;;;;;;;;6216061;23;20032;-73
2021/10/28 15:37:35;;;;;;;46.03;27.75;;;;;;;;;;6066469;23;20030;-69
2021/10/28 15:40:31;;;;;;;;;;;;;;;;;;6101988;23;20006;-72
2021/10/28 16:21:57;;;;;;;110.95;70.10;;;;;;;;;;6060194;23;20406;-69
2021/10/28 16:24:39;;;;;;;49.40;29.08;;;;;;;;;;6135887;23;20001;-70
2021/10/28 16:27:11;;;;;;;67.75;28.80;;;;;;;;;;6140532;23;20017;-70
2021/10/28 16:29:37;;;;;;;42.88;28.58;;;;;;;;;;6181428;23;20032;-72
2021/10/28 16:32:11;;;;;;;44.13;27.05;;;;;;;;;;6182455;23;20009;-71
2021/10/28 16:34:37;;;;;;;40.45;26.48;;;;;;;;;;6156445;23;20457;-71
2021/10/28 16:37:04;;;;;;;41.83;27.17;;;;;;;;;;6156520;23;20017;-70
2021/10/28 16:39:30;;;;;;;49.08;27.48;;;;;;;;;;6156360;23;20001;-70
2021/10/28 16:41:59;;;;;;;38.88;26.63;;;;;;;;;;6181408;23;20013;-71
2021/10/28 16:44:26;;;;;;;45.90;28.15;;;;;;;;;;6157034;23;20477;-70
2021/10/28 16:46:53;;;;;;;45.13;28.13;;;;;;;;;;6178681;23;20112;-70
2021/10/28 16:49:21;;;;;;;46.65;29.67;;;;;;;;;;6156043;23;20005;-71
2021/10/28 16:51:47;;;;;;;50.70;30.40;;;;;;;;;;6199519;23;20032;-71
2021/10/28 16:54:17;;;;;;;51.17;30.85;;;;;;;;;;6213940;23;20004;-70
2021/10/28 16:56:44;;;;;;;58.70;32.17;;;;;;;;;;6188263;23;20079;-71
2021/10/28 16:59:10;;;;;;;50.15;31.05;;;;;;;;;;6212611;23;20083;-71
2021/10/28 17:01:48;;;;;;;58.60;33.72;;;;;;;;;;6213441;23;20001;-71
2021/10/28 17:04:14;;;;;;;50.50;32.85;;;;;;;;;;6214930;23;20005;-71
2021/10/28 17:06:41;;;;;;;50.97;33.03;;;;;;;;;;6214810;23;20062;-71
2021/10/28 17:09:07;;;;;;;55.47;32.95;;;;;;;;;;6215010;23;20423;-71
2021/10/28 17:11:34;;;;;;;55.30;33.90;;;;;;;;;;6214629;23;20019;-71
2021/10/28 17:14:03;;;;;;;52.13;33.53;;;;;;;;;;6213629;23;20001;-71
2021/10/28 17:16:30;;;;;;;48.80;32.92;;;;;;;;;;6217078;23;20007;-72
2021/10/28 17:18:56;;;;;;;58.22;35.40;;;;;;;;;;6214719;23;20000;-71
2021/10/28 17:21:24;;;;;;;59.38;34.33;;;;;;;;;;6212975;23;19997;-71
2021/10/28 17:23:59;;;;;;;55.85;37.17;;;;;;;;;;6213460;23;20031;-71
2021/10/28 17:26:25;;;;;;;58.05;39.17;;;;;;;;;;6214393;23;20000;-71
2021/10/28 17:28:59;;;;;;;62.67;35.83;;;;;;;;;;6213995;23;20059;-72
2021/10/28 17:31:25;;;;;;;57.40;36.58;;;;;;;;;;6214653;23;20486;-71
2021/10/28 17:33:51;;;;;;;66.32;36.05;;;;;;;;;;6214447;23;20079;-71
2021/10/28 17:36:17;;;;;;;63.30;38.55;;;;;;;;;;6214499;23;20012;-72
2021/10/28 17:38:48;;;;;;;44.05;29.67;;;;;;;;;;6214112;23;20087;-70
2021/10/28 17:41:18;;;;;;;46.45;31.75;;;;;;;;;;6213056;23;20412;-72
2021/10/28 17:43:48;;;;;;;42.63;28.38;;;;;;;;;;6213661;23;20374;-71
2021/10/28 17:46:14;;;;;;;56.25;31.23;;;;;;;;;;6214362;23;20000;-71
2021/10/28 17:48:43;;;;;;;42.13;27.08;;;;;;;;;;6214402;23;20007;-71
2021/10/28 17:51:11;;;;;;;47.22;28.55;;;;;;;;;;6213060;23;20333;-71
2021/10/28 17:53:38;;;;;;;39.92;25.55;;;;;;;;;;6214118;23;20004;-71
2021/10/28 17:56:04;;;;;;;73.55;31.55;;;;;;;;;;6212837;23;20008;-71
2021/10/28 17:58:33;;;;;;;40.67;26.00;;;;;;;;;;6212735;23;20005;-71
2021/10/28 18:00:59;;;;;;;42.22;26.25;;;;;;;;;;6213540;23;19997;-72
2021/10/28 18:03:25;;;;;;;43.40;25.80;;;;;;;;;;6214439;23;20004;-72
2021/10/28 18:05:52;;;;;;;37.95;24.27;;;;;;;;;;6211845;23;19996;-71
2021/10/28 18:08:18;;;;;;;37.13;22.83;;;;;;;;;;6211092;23;20024;-71
2021/10/28 18:10:51;;;;;;;31.08;21.45;;;;;;;;;;6214046;23;20008;-71
2021/10/28 18:13:20;;;;;;;34.70;21.55;;;;;;;;;;6214560;23;20060;-71
2021/10/28 18:15:47;;;;;;;36.00;21.50;;;;;;;;;;6212572;23;20012;-72
2021/10/28 18:18:13;;;;;;;30.65;20.52;;;;;;;;;;6214356;23;20001;-71
2021/10/28 18:20:42;;;;;;;32.53;21.40;;;;;;;;;;6215459;23;20009;-69
2021/10/28 18:23:11;;;;;;;32.38;21.67;;;;;;;;;;6214139;23;20419;-69
2021/10/28 18:25:37;;;;;;;36.30;22.30;;;;;;;;;;6214132;23;20000;-70
2021/10/28 18:28:04;;;;;;;38.33;24.25;;;;;;;;;;6214032;23;20009;-70
2021/10/28 18:30:37;;;;;;;37.03;25.08;;;;;;;;;;6214039;23;20009;-70
2021/10/28 18:33:04;;;;;;;35.95;26.35;;;;;;;;;;6214513;23;20031;-70
2021/10/28 18:35:30;;;;;;;43.53;30.15;;;;;;;;;;6212787;23;20005;-70
2021/10/28 18:37:59;;;;;;;31.23;20.98;;;;;;;;;;6214256;23;20070;-70
2021/10/28 18:40:27;;;;;;;33.15;21.10;;;;;;;;;;6214206;23;20004;-69
2021/10/28 18:42:55;;;;;;;40.25;25.48;;;;;;;;;;6214474;23;20001;-69
2021/10/28 18:45:21;;;;;;;33.58;23.13;;;;;;;;;;6213902;23;20398;-69
2021/10/28 18:47:48;;;;;;;35.10;24.75;;;;;;;;;;6214619;23;20009;-70
2021/10/28 18:50:14;;;;;;;36.03;22.95;;;;;;;;;;6214310;23;20435;-70
2021/10/28 18:52:41;;;;;;;27.70;19.92;;;;;;;;;;6215571;23;20000;-69
2021/10/28 18:55:11;;;;;;;28.85;18.65;;;;;;;;;;6216517;23;20005;-71
2021/10/28 18:57:40;;;;;;;29.45;20.55;;;;;;;;;;6216237;23;20004;-70
2021/10/28 19:00:11;;;;;;;25.30;17.45;;;;;;;;;;6216284;23;20334;-71
2021/10/28 19:02:38;;;;;;;31.85;17.90;;;;;;;;;;6214634;23;20004;-70
2021/10/28 19:05:07;;;;;;;30.95;19.77;;;;;;;;;;6216501;23;20032;-71
2021/10/28 19:07:33;;;;;;;31.95;18.92;;;;;;;;;;6215463;23;20015;-71
2021/10/28 19:10:09;;;;;;;31.40;18.17;;;;;;;;;;6212699;23;20035;-71
2021/10/28 19:12:37;;;;;;;24.27;17.83;;;;;;;;;;6215912;23;20000;-70
2021/10/28 19:15:04;;;;;;;27.42;18.92;;;;;;;;;;6215835;23;20131;-74
2021/10/28 19:17:35;;;;;;;33.22;22.02;;;;;;;;;;6216290;23;20005;-71
2021/10/28 19:20:03;;;;;;;28.20;19.27;;;;;;;;;;6214219;23;20000;-71
2021/10/28 19:22:30;;;;;;;26.17;18.63;;;;;;;;;;6215944;23;20047;-71
2021/10/28 19:24:58;;;;;;;29.17;20.23;;;;;;;;;;6214710;23;20434;-71
2021/10/28 19:27:24;;;;;;;32.15;21.30;;;;;;;;;;6215618;23;20047;-72
2021/10/28 19:29:56;;;;;;;33.13;21.55;;;;;;;;;;6215392;23;20004;-71
2021/10/28 19:32:24;;;;;;;37.75;24.02;;;;;;;;;;6215910;23;20009;-72
2021/10/28 19:34:51;;;;;;;36.75;24.02;;;;;;;;;;6216007;23;20063;-71
2021/10/28 19:37:28;;;;;;;36.53;21.38;;;;;;;;;;6214762;23;20047;-71
2021/10/28 19:46:08;;;;;;;32.60;22.77;;;;;;;;;;6215969;23;20020;-70
2021/10/28 19:48:16;;;;;;;33.13;20.65;;;;;;;;;;6215449;23;20020;-72
2021/10/28 19:50:50;;;;;;;33.70;22.35;;;;;;;;;;6215543;23;20500;-71
2021/10/28 19:53:16;;;;;;;31.00;20.38;;;;;;;;;;6217488;23;20004;-71
2021/10/28 19:55:43;;;;;;;30.23;20.20;;;;;;;;;;6223235;23;20004;-71
2021/10/28 19:58:17;;;;;;;30.35;19.42;;;;;;;;;;6219609;23;20001;-72
2021/10/28 20:01:12;;;;;;;30.65;19.33;;;;;;;;;;6212996;23;20009;-73
2021/10/28 20:20:22;;;;;;;31.83;22.38;;;;;;;;;;6153099;23;20039;-72
2021/10/28 20:22:50;;;;;;;36.50;25.83;;;;;;;;;;6154341;23;20012;-72
2021/10/28 20:25:21;;;;;;;34.60;24.58;;;;;;;;;;6129108;23;19998;-72
2021/10/28 20:27:50;;;;;;;44.42;32.47;;;;;;;;;;6140466;23;20030;-72
2021/10/28 20:30:17;;;;;;;69.32;44.35;;;;;;;;;;6123238;23;20006;-72
2021/10/28 20:32:44;;;;;;;47.00;31.38;;;;;;;;;;6124807;23;20010;-72
2021/10/28 20:37:49;;;;;;;43.20;29.23;;;;;;;;;;6130277;23;20014;-72
2021/10/28 20:40:16;;;;;;;64.57;41.05;;;;;;;;;;6147932;23;20016;-72
2021/10/28 20:42:49;;;;;;;41.92;26.45;;;;;;;;;;6190948;23;20005;-73
2021/10/28 20:45:33;;;;;;;38.17;23.33;;;;;;;;;;6159529;23;19997;-72
2021/10/28 20:48:02;;;;;;;27.25;18.95;;;;;;;;;;6185557;23;20012;-72
2021/10/28 20:50:29;;;;;;;37.85;24.05;;;;;;;;;;6191064;23;20013;-72
2021/10/28 20:52:55;;;;;;;38.85;26.67;;;;;;;;;;6163149;23;20005;-72
2021/10/28 20:55:21;;;;;;;33.20;22.95;;;;;;;;;;6185401;23;19997;-72
2021/10/28 20:57:49;;;;;;;37.80;24.33;;;;;;;;;;6187279;23;20075;-72
2021/10/28 21:00:19;;;;;;;40.42;24.30;;;;;;;;;;6185185;23;20004;-72
2021/10/28 21:02:46;;;;;;;37.25;24.83;;;;;;;;;;6185647;23;20005;-72
2021/10/28 21:05:15;;;;;;;33.15;23.92;;;;;;;;;;6191742;23;20001;-72
2021/10/28 21:07:43;;;;;;;35.60;26.42;;;;;;;;;;6157950;23;20419;-71
2021/10/28 21:10:10;;;;;;;35.75;23.02;;;;;;;;;;6185453;23;20026;-72
2021/10/28 21:12:37;;;;;;;32.95;22.42;;;;;;;;;;6185489;23;20331;-72
2021/10/28 21:15:03;;;;;;;31.02;20.70;;;;;;;;;;6185297;23;20024;-71
2021/10/28 21:17:29;;;;;;;29.45;20.38;;;;;;;;;;6184733;23;20339;-72
2021/10/28 21:19:56;;;;;;;30.98;21.05;;;;;;;;;;6185688;23;20079;-72
2021/10/28 21:22:22;;;;;;;34.08;23.45;;;;;;;;;;6161448;23;20084;-71
2021/10/28 21:24:50;;;;;;;32.25;20.33;;;;;;;;;;6184832;23;20005;-72
2021/10/28 21:27:20;;;;;;;29.42;19.83;;;;;;;;;;6200445;23;20012;-72
2021/10/28 21:29:47;;;;;;;32.00;21.23;;;;;;;;;;6215366;23;20055;-72
2021/10/28 21:32:13;;;;;;;30.63;19.48;;;;;;;;;;6214966;23;20011;-72
2021/10/28 21:34:41;;;;;;;32.38;20.40;;;;;;;;;;6215276;23;19993;-72
2021/10/28 21:37:08;;;;;;;29.80;19.08;;;;;;;;;;6215018;23;20016;-73
2021/10/28 21:39:36;;;;;;;30.75;19.90;;;;;;;;;;6215323;23;20021;-72
2021/10/28 21:42:03;;;;;;;35.47;20.20;;;;;;;;;;6215472;23;20071;-71
2021/10/28 21:44:30;;;;;;;35.00;22.50;;;;;;;;;;6215539;23;20055;-72
2021/10/28 21:46:56;;;;;;;36.28;22.48;;;;;;;;;;6217030;23;20009;-72
2021/10/28 21:49:23;;;;;;;39.13;25.55;;;;;;;;;;6215717;23;20035;-71
2021/10/28 21:51:54;;;;;;;58.67;32.88;;;;;;;;;;6222289;23;20013;-72
2021/10/28 21:54:43;;;;;;;38.78;24.40;;;;;;;;;;6217926;23;20005;-71
2021/10/28 21:57:39;;;;;;;53.50;30.55;;;;;;;;;;6214967;23;20001;-71
2021/10/28 22:03:00;;;;;;;101.78;49.63;;;;;;;;;;6214801;23;20012;-71
2021/10/28 22:24:53;;;;;;;56.42;36.42;;;;;;;;;;6216441;23;20019;-71
2021/10/28 22:27:20;;;;;;;37.67;24.80;;;;;;;;;;6215549;23;20337;-71
2021/10/28 22:29:46;;;;;;;29.20;20.63;;;;;;;;;;6216551;23;20033;-71
2021/10/28 22:32:15;;;;;;;27.80;19.23;;;;;;;;;;6216594;23;20023;-71
2021/10/28 22:34:43;;;;;;;26.92;17.52;;;;;;;;;;6217256;23;20395;-71
2021/10/28 22:37:20;;;;;;;27.55;16.75;;;;;;;;;;6216852;23;20023;-72
2021/10/28 22:39:52;;;;;;;26.83;15.65;;;;;;;;;;6216852;23;20048;-71
2021/10/28 22:42:18;;;;;;;24.15;17.27;;;;;;;;;;6216930;23;20000;-71
2021/10/28 22:44:45;;;;;;;28.50;16.48;;;;;;;;;;6220853;23;20000;-73
2021/10/28 22:47:12;;;;;;;33.00;20.73;;;;;;;;;;6215973;23;20005;-72
2021/10/28 22:49:38;;;;;;;24.05;16.52;;;;;;;;;;6216991;23;20011;-72
2021/10/28 22:52:13;;;;;;;28.10;18.80;;;;;;;;;;6216420;23;20012;-72
2021/10/28 22:54:39;;;;;;;25.67;17.73;;;;;;;;;;6216727;23;20007;-72
2021/10/28 22:57:10;;;;;;;29.35;17.40;;;;;;;;;;6216554;23;20012;-72
2021/10/28 22:59:37;;;;;;;26.70;17.17;;;;;;;;;;6216459;23;20012;-72
2021/10/28 23:02:25;;;;;;;31.50;17.90;;;;;;;;;;6216228;23;20495;-72
2021/10/28 23:05:21;;;;;;;29.02;19.38;;;;;;;;;;6219896;23;20001;-71
2021/10/28 23:21:06;;;;;;;32.35;20.85;;;;;;;;;;6153671;23;20032;-72
2021/10/28 23:23:33;;;;;;;31.42;19.70;;;;;;;;;;6154230;23;20011;-72
2021/10/28 23:25:59;;;;;;;41.95;21.73;;;;;;;;;;6153973;23;20085;-72
2021/10/28 23:28:25;;;;;;;39.78;22.08;;;;;;;;;;6153766;23;20014;-72
2021/10/28 23:30:52;;;;;;;30.98;21.45;;;;;;;;;;6158596;23;20463;-71
2021/10/28 23:33:19;;;;;;;34.08;20.90;;;;;;;;;;6129781;23;20025;-71
2021/10/28 23:35:45;;;;;;;31.30;20.55;;;;;;;;;;6162007;23;20013;-72
2021/10/28 23:38:11;;;;;;;30.92;20.90;;;;;;;;;;6154391;23;20098;-71
2021/10/28 23:40:40;;;;;;;35.90;21.77;;;;;;;;;;6129130;23;20044;-71
2021/10/28 23:43:07;;;;;;;33.25;22.17;;;;;;;;;;6153584;23;20013;-71
2021/10/28 23:45:33;;;;;;;32.63;21.25;;;;;;;;;;6159451;23;20396;-71
2021/10/28 23:47:59;;;;;;;38.25;22.73;;;;;;;;;;6222467;23;20071;-72
2021/10/28 23:50:25;;;;;;;39.10;22.75;;;;;;;;;;6215772;23;20435;-72
2021/10/28 23:52:51;;;;;;;36.30;21.95;;;;;;;;;;6216094;23;20362;-71
2021/10/28 23:55:18;;;;;;;34.30;22.73;;;;;;;;;;6216491;23;20027;-71
2021/10/28 23:57:44;;;;;;;35.50;22.58;;;;;;;;;;6216210;23;20004;-71
